sensor_id;sensor_type;location;lat;lon;timestamp;P1;durP1;ratioP1;P2;durP2;ratioP2
1344;SDS011;15375;48.540;9.268;2023-05-07T00:00:08;6.13;;;4.23;;
1344;SDS011;15375;48.540;9.268;2023-05-07T00:02:34;9.90;;;5.60;;
1344;SDS011;15375;48.540;9.268;2023-05-07T00:05:00;5.33;;;4.20;;
1344;SDS011;15375;48.540;9.268;2023-05-07T00:07:27;4.90;;;4.40;;
1344;SDS011;15375;48.540;9.268;2023-05-07T00:09:53;6.30;;;4.57;;
1344;SDS011;15375;48.540;9.268;2023-05-07T00:12:18;7.03;;;4.47;;
1344;SDS011;15375;48.540;9.268;2023-05-07T00:14:44;5.63;;;5.13;;
1344;SDS011;15375;48.540;9.268;2023-05-07T00:17:10;5.80;;;5.20;;
1344;SDS011;15375;48.540;9.268;2023-05-07T00:19:35;9.37;;;5.50;;
1344;SDS011;15375;48.540;9.268;2023-05-07T00:22:00;8.97;;;4.60;;
1344;SDS011;15375;48.540;9.268;2023-05-07T00:24:26;4.80;;;4.40;;
1344;SDS011;15375;48.540;9.268;2023-05-07T00:26:51;5.60;;;4.90;;
1344;SDS011;15375;48.540;9.268;2023-05-07T00:29:17;6.53;;;5.67;;
1344;SDS011;15375;48.540;9.268;2023-05-07T00:31:43;4.87;;;4.43;;
1344;SDS011;15375;48.540;9.268;2023-05-07T00:34:08;5.17;;;4.67;;
1344;SDS011;15375;48.540;9.268;2023-05-07T00:36:33;5.30;;;4.80;;
1344;SDS011;15375;48.540;9.268;2023-05-07T00:38:59;5.63;;;5.00;;
1344;SDS011;15375;48.540;9.268;2023-05-07T00:41:27;4.93;;;4.37;;
1344;SDS011;15375;48.540;9.268;2023-05-07T00:43:52;5.00;;;4.60;;
1344;SDS011;15375;48.540;9.268;2023-05-07T00:46:18;5.03;;;3.90;;
1344;SDS011;15375;48.540;9.268;2023-05-07T00:48:45;4.63;;;4.30;;
1344;SDS011;15375;48.540;9.268;2023-05-07T00:51:11;6.00;;;4.53;;
1344;SDS011;15375;48.540;9.268;2023-05-07T00:53:37;5.30;;;4.80;;
1344;SDS011;15375;48.540;9.268;2023-05-07T00:56:03;5.50;;;5.00;;
1344;SDS011;15375;48.540;9.268;2023-05-07T00:58:28;5.00;;;4.57;;
1344;SDS011;15375;48.540;9.268;2023-05-07T01:00:55;4.90;;;4.40;;
1344;SDS011;15375;48.540;9.268;2023-05-07T01:03:20;5.70;;;4.30;;
1344;SDS011;15375;48.540;9.268;2023-05-07T01:05:46;6.03;;;5.57;;
1344;SDS011;15375;48.540;9.268;2023-05-07T01:08:14;5.07;;;4.63;;
1344;SDS011;15375;48.540;9.268;2023-05-07T01:10:40;4.77;;;4.30;;
1344;SDS011;15375;48.540;9.268;2023-05-07T01:13:08;5.40;;;5.00;;
1344;SDS011;15375;48.540;9.268;2023-05-07T01:15:35;8.87;;;6.00;;
1344;SDS011;15375;48.540;9.268;2023-05-07T01:18:00;7.67;;;5.07;;
1344;SDS011;15375;48.540;9.268;2023-05-07T01:20:26;5.03;;;4.23;;
1344;SDS011;15375;48.540;9.268;2023-05-07T01:22:53;5.53;;;4.63;;
1344;SDS011;15375;48.540;9.268;2023-05-07T01:25:19;4.53;;;3.73;;
1344;SDS011;15375;48.540;9.268;2023-05-07T01:27:44;5.20;;;4.80;;
1344;SDS011;15375;48.540;9.268;2023-05-07T01:30:10;6.93;;;4.83;;
1344;SDS011;15375;48.540;9.268;2023-05-07T01:32:37;4.80;;;4.27;;
1344;SDS011;15375;48.540;9.268;2023-05-07T01:35:16;4.90;;;4.13;;
1344;SDS011;15375;48.540;9.268;2023-05-07T01:37:45;7.20;;;3.93;;
1344;SDS011;15375;48.540;9.268;2023-05-07T01:40:11;7.23;;;4.90;;
1344;SDS011;15375;48.540;9.268;2023-05-07T01:42:38;7.10;;;4.50;;
1344;SDS011;15375;48.540;9.268;2023-05-07T01:45:04;5.47;;;4.60;;
1344;SDS011;15375;48.540;9.268;2023-05-07T01:47:30;8.37;;;4.37;;
1344;SDS011;15375;48.540;9.268;2023-05-07T01:49:56;6.33;;;5.77;;
1344;SDS011;15375;48.540;9.268;2023-05-07T01:52:22;8.83;;;5.90;;
1344;SDS011;15375;48.540;9.268;2023-05-07T01:54:47;7.13;;;6.00;;
1344;SDS011;15375;48.540;9.268;2023-05-07T01:57:13;5.80;;;5.00;;
1344;SDS011;15375;48.540;9.268;2023-05-07T01:59:38;6.27;;;5.03;;
1344;SDS011;15375;48.540;9.268;2023-05-07T02:02:03;4.87;;;4.50;;
1344;SDS011;15375;48.540;9.268;2023-05-07T02:04:28;8.30;;;4.70;;
1344;SDS011;15375;48.540;9.268;2023-05-07T02:06:54;11.20;;;4.90;;
1344;SDS011;15375;48.540;9.268;2023-05-07T02:09:20;5.83;;;5.00;;
1344;SDS011;15375;48.540;9.268;2023-05-07T02:11:46;6.20;;;5.63;;
1344;SDS011;15375;48.540;9.268;2023-05-07T02:14:11;5.53;;;4.90;;
1344;SDS011;15375;48.540;9.268;2023-05-07T02:16:36;7.20;;;4.43;;
1344;SDS011;15375;48.540;9.268;2023-05-07T02:19:02;6.63;;;5.07;;
1344;SDS011;15375;48.540;9.268;2023-05-07T02:21:27;5.20;;;4.77;;
1344;SDS011;15375;48.540;9.268;2023-05-07T02:23:52;5.83;;;5.37;;
1344;SDS011;15375;48.540;9.268;2023-05-07T02:26:18;6.10;;;5.50;;
1344;SDS011;15375;48.540;9.268;2023-05-07T02:28:43;6.53;;;4.93;;
1344;SDS011;15375;48.540;9.268;2023-05-07T02:31:08;4.73;;;4.33;;
1344;SDS011;15375;48.540;9.268;2023-05-07T02:33:34;4.73;;;4.33;;
1344;SDS011;15375;48.540;9.268;2023-05-07T02:36:09;4.97;;;4.40;;
1344;SDS011;15375;48.540;9.268;2023-05-07T02:38:35;7.20;;;4.57;;
1344;SDS011;15375;48.540;9.268;2023-05-07T02:41:01;6.17;;;5.30;;
1344;SDS011;15375;48.540;9.268;2023-05-07T02:43:26;6.50;;;5.70;;
1344;SDS011;15375;48.540;9.268;2023-05-07T02:46:02;6.27;;;5.70;;
1344;SDS011;15375;48.540;9.268;2023-05-07T02:48:32;5.20;;;4.70;;
1344;SDS011;15375;48.540;9.268;2023-05-07T02:50:58;10.47;;;4.90;;
1344;SDS011;15375;48.540;9.268;2023-05-07T02:53:24;5.30;;;4.43;;
1344;SDS011;15375;48.540;9.268;2023-05-07T02:55:55;5.63;;;5.00;;
1344;SDS011;15375;48.540;9.268;2023-05-07T02:58:21;5.23;;;4.30;;
1344;SDS011;15375;48.540;9.268;2023-05-07T03:00:47;6.23;;;4.70;;
1344;SDS011;15375;48.540;9.268;2023-05-07T03:03:12;4.57;;;4.20;;
1344;SDS011;15375;48.540;9.268;2023-05-07T03:05:38;5.30;;;4.80;;
1344;SDS011;15375;48.540;9.268;2023-05-07T03:08:03;9.60;;;4.40;;
1344;SDS011;15375;48.540;9.268;2023-05-07T03:10:29;5.33;;;4.73;;
1344;SDS011;15375;48.540;9.268;2023-05-07T03:12:55;4.83;;;4.40;;
1344;SDS011;15375;48.540;9.268;2023-05-07T03:15:20;7.13;;;5.20;;
1344;SDS011;15375;48.540;9.268;2023-05-07T03:17:46;5.43;;;5.00;;
1344;SDS011;15375;48.540;9.268;2023-05-07T03:20:12;7.03;;;4.67;;
1344;SDS011;15375;48.540;9.268;2023-05-07T03:22:38;5.80;;;4.47;;
1344;SDS011;15375;48.540;9.268;2023-05-07T03:25:03;4.83;;;4.40;;
1344;SDS011;15375;48.540;9.268;2023-05-07T03:27:29;4.80;;;4.40;;
1344;SDS011;15375;48.540;9.268;2023-05-07T03:29:55;6.13;;;4.67;;
1344;SDS011;15375;48.540;9.268;2023-05-07T03:32:20;7.30;;;5.63;;
1344;SDS011;15375;48.540;9.268;2023-05-07T03:34:46;6.43;;;5.83;;
1344;SDS011;15375;48.540;9.268;2023-05-07T03:37:11;5.47;;;4.97;;
1344;SDS011;15375;48.540;9.268;2023-05-07T03:39:36;8.20;;;5.57;;
1344;SDS011;15375;48.540;9.268;2023-05-07T03:42:02;7.57;;;5.23;;
1344;SDS011;15375;48.540;9.268;2023-05-07T03:44:28;7.77;;;4.60;;
1344;SDS011;15375;48.540;9.268;2023-05-07T03:46:53;5.10;;;4.70;;
1344;SDS011;15375;48.540;9.268;2023-05-07T03:49:18;5.10;;;4.70;;
1344;SDS011;15375;48.540;9.268;2023-05-07T03:51:44;5.57;;;4.13;;
1344;SDS011;15375;48.540;9.268;2023-05-07T03:54:09;5.10;;;4.60;;
1344;SDS011;15375;48.540;9.268;2023-05-07T03:56:35;5.80;;;4.37;;
1344;SDS011;15375;48.540;9.268;2023-05-07T03:59:00;5.17;;;4.70;;
1344;SDS011;15375;48.540;9.268;2023-05-07T04:01:26;8.57;;;4.50;;
1344;SDS011;15375;48.540;9.268;2023-05-07T04:03:51;5.13;;;4.63;;
1344;SDS011;15375;48.540;9.268;2023-05-07T04:06:17;4.40;;;4.00;;
1344;SDS011;15375;48.540;9.268;2023-05-07T04:08:42;6.37;;;5.77;;
1344;SDS011;15375;48.540;9.268;2023-05-07T04:11:08;5.80;;;5.20;;
1344;SDS011;15375;48.540;9.268;2023-05-07T04:13:33;6.73;;;4.70;;
1344;SDS011;15375;48.540;9.268;2023-05-07T04:15:58;5.63;;;4.80;;
1344;SDS011;15375;48.540;9.268;2023-05-07T04:18:26;4.23;;;3.93;;
1344;SDS011;15375;48.540;9.268;2023-05-07T04:20:51;4.57;;;4.17;;
1344;SDS011;15375;48.540;9.268;2023-05-07T04:23:16;4.50;;;4.20;;
1344;SDS011;15375;48.540;9.268;2023-05-07T04:25:42;6.03;;;5.13;;
1344;SDS011;15375;48.540;9.268;2023-05-07T04:28:07;6.27;;;4.47;;
1344;SDS011;15375;48.540;9.268;2023-05-07T04:30:32;5.60;;;5.10;;
1344;SDS011;15375;48.540;9.268;2023-05-07T04:32:58;8.40;;;5.80;;
1344;SDS011;15375;48.540;9.268;2023-05-07T04:35:23;6.00;;;5.40;;
1344;SDS011;15375;48.540;9.268;2023-05-07T04:37:48;11.53;;;4.97;;
1344;SDS011;15375;48.540;9.268;2023-05-07T04:40:14;8.60;;;5.37;;
1344;SDS011;15375;48.540;9.268;2023-05-07T04:42:39;5.03;;;4.50;;
1344;SDS011;15375;48.540;9.268;2023-05-07T04:45:05;5.03;;;4.50;;
1344;SDS011;15375;48.540;9.268;2023-05-07T04:47:31;5.10;;;4.47;;
1344;SDS011;15375;48.540;9.268;2023-05-07T04:49:57;5.10;;;4.50;;
1344;SDS011;15375;48.540;9.268;2023-05-07T04:52:23;5.93;;;4.53;;
1344;SDS011;15375;48.540;9.268;2023-05-07T04:54:48;5.33;;;4.63;;
1344;SDS011;15375;48.540;9.268;2023-05-07T04:57:13;5.57;;;5.07;;
1344;SDS011;15375;48.540;9.268;2023-05-07T04:59:39;8.77;;;5.13;;
1344;SDS011;15375;48.540;9.268;2023-05-07T05:02:04;7.67;;;5.07;;
1344;SDS011;15375;48.540;9.268;2023-05-07T05:04:30;5.33;;;4.90;;
1344;SDS011;15375;48.540;9.268;2023-05-07T05:06:55;8.67;;;5.37;;
1344;SDS011;15375;48.540;9.268;2023-05-07T05:09:21;8.60;;;5.60;;
1344;SDS011;15375;48.540;9.268;2023-05-07T05:11:46;6.63;;;5.90;;
1344;SDS011;15375;48.540;9.268;2023-05-07T05:14:11;5.77;;;5.27;;
1344;SDS011;15375;48.540;9.268;2023-05-07T05:16:37;5.97;;;5.33;;
1344;SDS011;15375;48.540;9.268;2023-05-07T05:19:02;7.33;;;5.50;;
1344;SDS011;15375;48.540;9.268;2023-05-07T05:21:28;8.77;;;5.60;;
1344;SDS011;15375;48.540;9.268;2023-05-07T05:23:53;6.07;;;5.50;;
1344;SDS011;15375;48.540;9.268;2023-05-07T05:26:19;5.77;;;5.27;;
1344;SDS011;15375;48.540;9.268;2023-05-07T05:28:46;9.37;;;5.50;;
1344;SDS011;15375;48.540;9.268;2023-05-07T05:31:11;8.10;;;5.70;;
1344;SDS011;15375;48.540;9.268;2023-05-07T05:33:37;6.20;;;5.20;;
1344;SDS011;15375;48.540;9.268;2023-05-07T05:36:02;7.00;;;4.90;;
1344;SDS011;15375;48.540;9.268;2023-05-07T05:38:28;4.70;;;4.30;;
1344;SDS011;15375;48.540;9.268;2023-05-07T05:40:53;5.30;;;4.90;;
1344;SDS011;15375;48.540;9.268;2023-05-07T05:43:18;6.00;;;5.40;;
1344;SDS011;15375;48.540;9.268;2023-05-07T05:45:43;5.50;;;5.10;;
1344;SDS011;15375;48.540;9.268;2023-05-07T05:48:09;7.33;;;5.07;;
1344;SDS011;15375;48.540;9.268;2023-05-07T05:50:34;5.10;;;4.70;;
1344;SDS011;15375;48.540;9.268;2023-05-07T05:53:03;6.23;;;5.57;;
1344;SDS011;15375;48.540;9.268;2023-05-07T05:55:29;5.60;;;5.20;;
1344;SDS011;15375;48.540;9.268;2023-05-07T05:57:54;5.33;;;4.83;;
1344;SDS011;15375;48.540;9.268;2023-05-07T06:00:20;5.10;;;4.60;;
1344;SDS011;15375;48.540;9.268;2023-05-07T06:02:48;5.47;;;4.80;;
1344;SDS011;15375;48.540;9.268;2023-05-07T06:05:14;5.80;;;5.30;;
1344;SDS011;15375;48.540;9.268;2023-05-07T06:07:39;6.33;;;5.00;;
1344;SDS011;15375;48.540;9.268;2023-05-07T06:10:05;5.73;;;5.33;;
1344;SDS011;15375;48.540;9.268;2023-05-07T06:12:31;5.40;;;4.90;;
1344;SDS011;15375;48.540;9.268;2023-05-07T06:14:56;5.77;;;5.37;;
1344;SDS011;15375;48.540;9.268;2023-05-07T06:17:22;5.80;;;5.20;;
1344;SDS011;15375;48.540;9.268;2023-05-07T06:19:47;7.10;;;5.80;;
1344;SDS011;15375;48.540;9.268;2023-05-07T06:22:12;6.03;;;5.53;;
1344;SDS011;15375;48.540;9.268;2023-05-07T06:24:38;5.10;;;4.70;;
1344;SDS011;15375;48.540;9.268;2023-05-07T06:27:03;6.17;;;4.47;;
1344;SDS011;15375;48.540;9.268;2023-05-07T06:29:28;5.17;;;4.67;;
1344;SDS011;15375;48.540;9.268;2023-05-07T06:31:56;5.70;;;5.20;;
1344;SDS011;15375;48.540;9.268;2023-05-07T06:34:21;5.87;;;5.37;;
1344;SDS011;15375;48.540;9.268;2023-05-07T06:36:47;6.03;;;5.43;;
1344;SDS011;15375;48.540;9.268;2023-05-07T06:39:12;5.80;;;5.30;;
1344;SDS011;15375;48.540;9.268;2023-05-07T06:41:37;5.60;;;5.10;;
1344;SDS011;15375;48.540;9.268;2023-05-07T06:44:04;6.03;;;5.23;;
1344;SDS011;15375;48.540;9.268;2023-05-07T06:46:29;5.60;;;5.10;;
1344;SDS011;15375;48.540;9.268;2023-05-07T06:48:56;6.03;;;4.87;;
1344;SDS011;15375;48.540;9.268;2023-05-07T06:51:22;6.93;;;4.80;;
1344;SDS011;15375;48.540;9.268;2023-05-07T06:53:47;6.23;;;5.30;;
1344;SDS011;15375;48.540;9.268;2023-05-07T06:56:13;5.30;;;4.90;;
1344;SDS011;15375;48.540;9.268;2023-05-07T06:58:38;5.50;;;5.00;;
1344;SDS011;15375;48.540;9.268;2023-05-07T07:01:03;5.10;;;4.63;;
1344;SDS011;15375;48.540;9.268;2023-05-07T07:03:29;4.57;;;4.13;;
1344;SDS011;15375;48.540;9.268;2023-05-07T07:05:55;5.73;;;5.23;;
1344;SDS011;15375;48.540;9.268;2023-05-07T07:08:21;4.70;;;4.40;;
1344;SDS011;15375;48.540;9.268;2023-05-07T07:10:47;5.03;;;4.47;;
1344;SDS011;15375;48.540;9.268;2023-05-07T07:13:13;6.20;;;4.50;;
1344;SDS011;15375;48.540;9.268;2023-05-07T07:15:38;5.20;;;4.73;;
1344;SDS011;15375;48.540;9.268;2023-05-07T07:18:05;4.60;;;4.00;;
1344;SDS011;15375;48.540;9.268;2023-05-07T07:20:30;4.90;;;4.40;;
1344;SDS011;15375;48.540;9.268;2023-05-07T07:22:56;4.70;;;4.40;;
1344;SDS011;15375;48.540;9.268;2023-05-07T07:25:21;5.77;;;5.27;;
1344;SDS011;15375;48.540;9.268;2023-05-07T07:27:46;5.07;;;4.67;;
1344;SDS011;15375;48.540;9.268;2023-05-07T07:30:12;5.33;;;4.93;;
1344;SDS011;15375;48.540;9.268;2023-05-07T07:32:37;5.13;;;4.73;;
1344;SDS011;15375;48.540;9.268;2023-05-07T07:35:03;5.30;;;4.80;;
1344;SDS011;15375;48.540;9.268;2023-05-07T07:37:29;5.63;;;5.17;;
1344;SDS011;15375;48.540;9.268;2023-05-07T07:39:55;4.73;;;4.43;;
1344;SDS011;15375;48.540;9.268;2023-05-07T07:42:20;4.97;;;4.47;;
1344;SDS011;15375;48.540;9.268;2023-05-07T07:44:46;4.60;;;4.30;;
1344;SDS011;15375;48.540;9.268;2023-05-07T07:47:11;4.60;;;4.20;;
1344;SDS011;15375;48.540;9.268;2023-05-07T07:49:36;5.37;;;4.90;;
1344;SDS011;15375;48.540;9.268;2023-05-07T07:52:02;5.53;;;4.97;;
1344;SDS011;15375;48.540;9.268;2023-05-07T07:54:27;4.17;;;3.90;;
1344;SDS011;15375;48.540;9.268;2023-05-07T07:56:54;5.30;;;4.80;;
1344;SDS011;15375;48.540;9.268;2023-05-07T07:59:19;5.17;;;4.70;;
1344;SDS011;15375;48.540;9.268;2023-05-07T08:01:45;4.73;;;4.23;;
1344;SDS011;15375;48.540;9.268;2023-05-07T08:04:10;4.50;;;4.10;;
1344;SDS011;15375;48.540;9.268;2023-05-07T08:06:36;5.17;;;4.67;;
1344;SDS011;15375;48.540;9.268;2023-05-07T08:09:01;6.20;;;5.00;;
1344;SDS011;15375;48.540;9.268;2023-05-07T08:11:27;4.70;;;4.40;;
1344;SDS011;15375;48.540;9.268;2023-05-07T08:13:53;4.40;;;4.10;;
1344;SDS011;15375;48.540;9.268;2023-05-07T08:16:19;4.53;;;4.13;;
1344;SDS011;15375;48.540;9.268;2023-05-07T08:18:45;6.23;;;5.73;;
1344;SDS011;15375;48.540;9.268;2023-05-07T08:21:10;8.97;;;5.50;;
1344;SDS011;15375;48.540;9.268;2023-05-07T08:23:35;5.27;;;4.80;;
1344;SDS011;15375;48.540;9.268;2023-05-07T08:26:01;7.17;;;6.47;;
1344;SDS011;15375;48.540;9.268;2023-05-07T08:28:26;7.23;;;5.60;;
1344;SDS011;15375;48.540;9.268;2023-05-07T08:30:52;5.83;;;5.17;;
1344;SDS011;15375;48.540;9.268;2023-05-07T08:33:18;5.80;;;5.20;;
1344;SDS011;15375;48.540;9.268;2023-05-07T08:35:43;4.67;;;4.30;;
1344;SDS011;15375;48.540;9.268;2023-05-07T08:38:08;6.93;;;4.63;;
1344;SDS011;15375;48.540;9.268;2023-05-07T08:40:36;6.93;;;5.10;;
1344;SDS011;15375;48.540;9.268;2023-05-07T08:43:05;5.00;;;4.50;;
1344;SDS011;15375;48.540;9.268;2023-05-07T08:45:31;4.97;;;4.57;;
1344;SDS011;15375;48.540;9.268;2023-05-07T08:47:58;5.47;;;4.97;;
1344;SDS011;15375;48.540;9.268;2023-05-07T08:50:26;4.60;;;4.30;;
1344;SDS011;15375;48.540;9.268;2023-05-07T08:52:52;7.53;;;5.00;;
1344;SDS011;15375;48.540;9.268;2023-05-07T08:55:17;5.47;;;4.97;;
1344;SDS011;15375;48.540;9.268;2023-05-07T08:57:43;5.67;;;5.10;;
1344;SDS011;15375;48.540;9.268;2023-05-07T09:00:09;5.57;;;5.07;;
1344;SDS011;15375;48.540;9.268;2023-05-07T09:02:35;5.60;;;5.17;;
1344;SDS011;15375;48.540;9.268;2023-05-07T09:05:01;4.83;;;4.43;;
1344;SDS011;15375;48.540;9.268;2023-05-07T09:07:26;4.80;;;4.40;;
1344;SDS011;15375;48.540;9.268;2023-05-07T09:10:04;10.63;;;3.97;;
1344;SDS011;15375;48.540;9.268;2023-05-07T09:12:30;4.90;;;4.50;;
1344;SDS011;15375;48.540;9.268;2023-05-07T09:14:56;5.00;;;4.50;;
1344;SDS011;15375;48.540;9.268;2023-05-07T09:17:21;4.63;;;4.30;;
1344;SDS011;15375;48.540;9.268;2023-05-07T09:19:47;5.13;;;4.73;;
1344;SDS011;15375;48.540;9.268;2023-05-07T09:22:13;4.67;;;4.20;;
1344;SDS011;15375;48.540;9.268;2023-05-07T09:24:38;4.63;;;4.23;;
1344;SDS011;15375;48.540;9.268;2023-05-07T09:27:04;4.40;;;3.60;;
1344;SDS011;15375;48.540;9.268;2023-05-07T09:29:31;4.40;;;4.00;;
1344;SDS011;15375;48.540;9.268;2023-05-07T09:32:05;4.20;;;3.90;;
1344;SDS011;15375;48.540;9.268;2023-05-07T09:34:31;4.00;;;3.70;;
1344;SDS011;15375;48.540;9.268;2023-05-07T09:37:00;3.97;;;3.57;;
1344;SDS011;15375;48.540;9.268;2023-05-07T09:39:42;3.97;;;3.67;;
1344;SDS011;15375;48.540;9.268;2023-05-07T09:42:12;3.77;;;3.23;;
1344;SDS011;15375;48.540;9.268;2023-05-07T09:44:39;3.37;;;3.17;;
1344;SDS011;15375;48.540;9.268;2023-05-07T09:47:05;4.27;;;3.87;;
1344;SDS011;15375;48.540;9.268;2023-05-07T09:49:33;4.00;;;3.10;;
1344;SDS011;15375;48.540;9.268;2023-05-07T09:52:02;4.27;;;3.90;;
1344;SDS011;15375;48.540;9.268;2023-05-07T09:54:31;4.00;;;3.57;;
1344;SDS011;15375;48.540;9.268;2023-05-07T09:56:57;3.63;;;3.33;;
1344;SDS011;15375;48.540;9.268;2023-05-07T09:59:23;3.73;;;3.37;;
1344;SDS011;15375;48.540;9.268;2023-05-07T10:01:50;3.80;;;3.30;;
1344;SDS011;15375;48.540;9.268;2023-05-07T10:04:21;3.60;;;3.30;;
1344;SDS011;15375;48.540;9.268;2023-05-07T10:06:47;3.43;;;3.10;;
1344;SDS011;15375;48.540;9.268;2023-05-07T10:09:13;3.73;;;3.43;;
1344;SDS011;15375;48.540;9.268;2023-05-07T10:11:40;3.70;;;3.40;;
1344;SDS011;15375;48.540;9.268;2023-05-07T10:14:06;3.20;;;3.00;;
1344;SDS011;15375;48.540;9.268;2023-05-07T10:16:33;3.40;;;3.13;;
1344;SDS011;15375;48.540;9.268;2023-05-07T10:19:04;3.17;;;2.97;;
1344;SDS011;15375;48.540;9.268;2023-05-07T10:21:36;3.70;;;3.40;;
1344;SDS011;15375;48.540;9.268;2023-05-07T10:24:04;3.53;;;2.97;;
1344;SDS011;15375;48.540;9.268;2023-05-07T10:26:38;2.87;;;2.27;;
1344;SDS011;15375;48.540;9.268;2023-05-07T10:31:56;2.93;;;2.53;;
1344;SDS011;15375;48.540;9.268;2023-05-07T10:34:45;2.50;;;2.40;;
1344;SDS011;15375;48.540;9.268;2023-05-07T10:37:13;2.90;;;2.70;;
1344;SDS011;15375;48.540;9.268;2023-05-07T10:39:40;3.37;;;2.63;;
1344;SDS011;15375;48.540;9.268;2023-05-07T10:42:09;2.83;;;2.63;;
1344;SDS011;15375;48.540;9.268;2023-05-07T10:44:36;3.20;;;2.90;;
1344;SDS011;15375;48.540;9.268;2023-05-07T10:47:06;2.90;;;2.57;;
1344;SDS011;15375;48.540;9.268;2023-05-07T10:50:23;3.33;;;3.03;;
1344;SDS011;15375;48.540;9.268;2023-05-07T10:52:29;2.97;;;2.60;;
1344;SDS011;15375;48.540;9.268;2023-05-07T10:57:50;5.33;;;2.73;;
1344;SDS011;15375;48.540;9.268;2023-05-07T11:05:25;3.67;;;3.37;;
1344;SDS011;15375;48.540;9.268;2023-05-07T11:07:58;3.17;;;2.93;;
1344;SDS011;15375;48.540;9.268;2023-05-07T11:10:59;3.40;;;3.10;;
1344;SDS011;15375;48.540;9.268;2023-05-07T11:16:16;2.83;;;2.63;;
1344;SDS011;15375;48.540;9.268;2023-05-07T11:18:49;3.70;;;2.90;;
1344;SDS011;15375;48.540;9.268;2023-05-07T11:21:53;2.67;;;2.47;;
1344;SDS011;15375;48.540;9.268;2023-05-07T11:24:11;3.30;;;2.80;;
1344;SDS011;15375;48.540;9.268;2023-05-07T11:26:49;3.07;;;2.80;;
1344;SDS011;15375;48.540;9.268;2023-05-07T11:29:19;4.20;;;2.80;;
1344;SDS011;15375;48.540;9.268;2023-05-07T11:32:03;2.70;;;2.50;;
1344;SDS011;15375;48.540;9.268;2023-05-07T11:34:30;5.03;;;2.97;;
1344;SDS011;15375;48.540;9.268;2023-05-07T11:36:57;2.40;;;2.20;;
1344;SDS011;15375;48.540;9.268;2023-05-07T11:39:30;4.73;;;2.87;;
1344;SDS011;15375;48.540;9.268;2023-05-07T11:41:58;3.63;;;3.30;;
1344;SDS011;15375;48.540;9.268;2023-05-07T11:44:25;2.60;;;2.40;;
1344;SDS011;15375;48.540;9.268;2023-05-07T11:46:50;2.80;;;2.60;;
1344;SDS011;15375;48.540;9.268;2023-05-07T11:49:16;4.73;;;2.33;;
1344;SDS011;15375;48.540;9.268;2023-05-07T11:51:42;2.77;;;2.47;;
1344;SDS011;15375;48.540;9.268;2023-05-07T11:54:08;4.30;;;2.80;;
1344;SDS011;15375;48.540;9.268;2023-05-07T11:56:36;6.50;;;2.63;;
1344;SDS011;15375;48.540;9.268;2023-05-07T11:59:02;2.83;;;2.30;;
1344;SDS011;15375;48.540;9.268;2023-05-07T12:01:27;3.40;;;2.27;;
1344;SDS011;15375;48.540;9.268;2023-05-07T12:03:53;2.73;;;1.90;;
1344;SDS011;15375;48.540;9.268;2023-05-07T12:06:18;2.47;;;1.90;;
1344;SDS011;15375;48.540;9.268;2023-05-07T12:08:44;5.57;;;2.10;;
1344;SDS011;15375;48.540;9.268;2023-05-07T12:11:21;2.03;;;1.93;;
1344;SDS011;15375;48.540;9.268;2023-05-07T12:13:48;3.30;;;2.13;;
1344;SDS011;15375;48.540;9.268;2023-05-07T12:16:13;2.23;;;1.83;;
1344;SDS011;15375;48.540;9.268;2023-05-07T12:18:39;4.23;;;1.80;;
1344;SDS011;15375;48.540;9.268;2023-05-07T12:21:05;2.20;;;2.00;;
1344;SDS011;15375;48.540;9.268;2023-05-07T12:23:32;4.70;;;2.13;;
1344;SDS011;15375;48.540;9.268;2023-05-07T12:25:59;2.20;;;2.10;;
1344;SDS011;15375;48.540;9.268;2023-05-07T12:28:24;2.93;;;2.37;;
1344;SDS011;15375;48.540;9.268;2023-05-07T12:30:50;4.43;;;2.70;;
1344;SDS011;15375;48.540;9.268;2023-05-07T12:33:17;3.90;;;2.90;;
1344;SDS011;15375;48.540;9.268;2023-05-07T12:35:44;3.53;;;3.10;;
1344;SDS011;15375;48.540;9.268;2023-05-07T12:38:10;7.50;;;3.23;;
1344;SDS011;15375;48.540;9.268;2023-05-07T12:40:40;3.83;;;3.30;;
1344;SDS011;15375;48.540;9.268;2023-05-07T12:43:15;3.43;;;3.13;;
1344;SDS011;15375;48.540;9.268;2023-05-07T12:45:45;5.40;;;3.00;;
1344;SDS011;15375;48.540;9.268;2023-05-07T12:48:12;4.83;;;3.30;;
1344;SDS011;15375;48.540;9.268;2023-05-07T12:50:37;3.90;;;3.30;;
1344;SDS011;15375;48.540;9.268;2023-05-07T12:53:03;7.20;;;3.43;;
1344;SDS011;15375;48.540;9.268;2023-05-07T12:55:39;4.73;;;3.20;;
1344;SDS011;15375;48.540;9.268;2023-05-07T12:58:19;3.50;;;3.20;;
1344;SDS011;15375;48.540;9.268;2023-05-07T13:00:49;4.00;;;3.10;;
1344;SDS011;15375;48.540;9.268;2023-05-07T13:03:26;4.30;;;3.60;;
1344;SDS011;15375;48.540;9.268;2023-05-07T13:05:57;3.73;;;3.43;;
1344;SDS011;15375;48.540;9.268;2023-05-07T13:08:32;4.50;;;3.33;;
1344;SDS011;15375;48.540;9.268;2023-05-07T13:11:01;6.60;;;3.97;;
1344;SDS011;15375;48.540;9.268;2023-05-07T13:13:29;4.37;;;3.57;;
1344;SDS011;15375;48.540;9.268;2023-05-07T13:15:58;4.47;;;3.40;;
1344;SDS011;15375;48.540;9.268;2023-05-07T13:18:25;5.60;;;4.33;;
1344;SDS011;15375;48.540;9.268;2023-05-07T13:20:51;5.13;;;3.58;;
1344;SDS011;15375;48.540;9.268;2023-05-07T13:23:17;8.60;;;4.20;;
1344;SDS011;15375;48.540;9.268;2023-05-07T13:25:42;8.20;;;3.97;;
1344;SDS011;15375;48.540;9.268;2023-05-07T13:28:08;4.00;;;3.67;;
1344;SDS011;15375;48.540;9.268;2023-05-07T13:30:33;3.70;;;3.10;;
1344;SDS011;15375;48.540;9.268;2023-05-07T13:32:58;3.40;;;2.70;;
1344;SDS011;15375;48.540;9.268;2023-05-07T13:35:24;5.53;;;4.27;;
1344;SDS011;15375;48.540;9.268;2023-05-07T13:37:50;17.07;;;11.80;;
1344;SDS011;15375;48.540;9.268;2023-05-07T13:40:16;9.30;;;7.57;;
1344;SDS011;15375;48.540;9.268;2023-05-07T13:42:42;9.23;;;5.50;;
1344;SDS011;15375;48.540;9.268;2023-05-07T13:45:08;15.20;;;4.40;;
1344;SDS011;15375;48.540;9.268;2023-05-07T13:47:34;8.77;;;6.57;;
1344;SDS011;15375;48.540;9.268;2023-05-07T13:50:00;8.87;;;7.97;;
1344;SDS011;15375;48.540;9.268;2023-05-07T13:52:25;5.77;;;4.47;;
1344;SDS011;15375;48.540;9.268;2023-05-07T13:54:51;5.57;;;3.60;;
1344;SDS011;15375;48.540;9.268;2023-05-07T13:57:17;3.97;;;3.63;;
1344;SDS011;15375;48.540;9.268;2023-05-07T13:59:43;4.40;;;4.00;;
1344;SDS011;15375;48.540;9.268;2023-05-07T14:02:08;7.50;;;4.03;;
1344;SDS011;15375;48.540;9.268;2023-05-07T14:04:34;8.20;;;4.33;;
1344;SDS011;15375;48.540;9.268;2023-05-07T14:06:59;6.60;;;4.50;;
1344;SDS011;15375;48.540;9.268;2023-05-07T14:09:25;5.13;;;4.30;;
1344;SDS011;15375;48.540;9.268;2023-05-07T14:11:50;6.90;;;4.67;;
1344;SDS011;15375;48.540;9.268;2023-05-07T14:14:19;5.70;;;4.20;;
1344;SDS011;15375;48.540;9.268;2023-05-07T14:16:45;5.23;;;4.50;;
1344;SDS011;15375;48.540;9.268;2023-05-07T14:19:11;5.70;;;5.20;;
1344;SDS011;15375;48.540;9.268;2023-05-07T14:21:39;10.33;;;5.90;;
1344;SDS011;15375;48.540;9.268;2023-05-07T14:24:05;9.70;;;5.63;;
1344;SDS011;15375;48.540;9.268;2023-05-07T14:26:32;8.40;;;6.83;;
1344;SDS011;15375;48.540;9.268;2023-05-07T14:28:57;6.13;;;5.67;;
1344;SDS011;15375;48.540;9.268;2023-05-07T14:31:23;6.17;;;5.57;;
1344;SDS011;15375;48.540;9.268;2023-05-07T14:33:49;7.70;;;5.47;;
1344;SDS011;15375;48.540;9.268;2023-05-07T14:36:17;5.80;;;4.80;;
1344;SDS011;15375;48.540;9.268;2023-05-07T14:38:47;7.60;;;5.10;;
1344;SDS011;15375;48.540;9.268;2023-05-07T14:41:13;4.90;;;4.40;;
1344;SDS011;15375;48.540;9.268;2023-05-07T14:43:39;11.30;;;5.60;;
1344;SDS011;15375;48.540;9.268;2023-05-07T14:46:04;7.60;;;5.70;;
1344;SDS011;15375;48.540;9.268;2023-05-07T14:48:30;7.50;;;6.33;;
1344;SDS011;15375;48.540;9.268;2023-05-07T14:50:55;9.30;;;7.37;;
1344;SDS011;15375;48.540;9.268;2023-05-07T14:53:21;7.53;;;6.63;;
1344;SDS011;15375;48.540;9.268;2023-05-07T14:55:47;8.80;;;6.37;;
1344;SDS011;15375;48.540;9.268;2023-05-07T14:58:13;8.10;;;5.93;;
1344;SDS011;15375;48.540;9.268;2023-05-07T15:00:38;6.10;;;5.60;;
1344;SDS011;15375;48.540;9.268;2023-05-07T15:03:09;6.47;;;5.83;;
1344;SDS011;15375;48.540;9.268;2023-05-07T15:05:38;5.23;;;4.70;;
1344;SDS011;15375;48.540;9.268;2023-05-07T15:08:03;4.23;;;3.93;;
1344;SDS011;15375;48.540;9.268;2023-05-07T15:10:29;5.43;;;4.80;;